Time;durP1;ratioP1;P1;durP2;ratioP2;P2;SDS_P1;SDS_P2;PMS_P1;PMS_P2;Temp;Humidity;BMP_temperature;BMP_pressure;BME280_temperature;BME280_humidity;BME280_pressure;Samples;Min_cycle;Max_cycle;Signal;HPM_P1;HPM_P2
2022/05/07 00:00:07;;;;;;;10.15;6.80;;;17.40;77.90;;;;;;10451975;28;20029;-58
2022/05/07 00:05:08;;;;;;;8.65;6.38;;;17.40;77.90;;;;;;10450788;28;20029;-58
2022/05/07 00:10:09;;;;;;;9.02;6.43;;;17.30;78.00;;;;;;10451132;28;20037;-58
2022/05/07 00:15:10;;;;;;;11.00;6.60;;;17.30;78.10;;;;;;10451620;28;20029;-59
2022/05/07 00:20:11;;;;;;;12.13;6.75;;;17.30;78.10;;;;;;10450725;28;20094;-57
2022/05/07 00:25:13;;;;;;;9.60;6.78;;;17.20;78.80;;;;;;10451292;28;20410;-58
2022/05/07 00:30:13;;;;;;;10.55;6.78;;;17.20;78.30;;;;;;10450682;28;20040;-58
2022/05/07 00:35:14;;;;;;;9.80;6.85;;;17.20;78.40;;;;;;10450871;28;20029;-54
2022/05/07 00:40:15;;;;;;;9.07;6.57;;;17.10;78.40;;;;;;10450439;28;20033;-58
2022/05/07 00:45:16;;;;;;;10.35;6.60;;;17.10;78.40;;;;;;10450420;28;20029;-58
2022/05/07 00:55:37;;;;;;;10.75;7.05;;;17.00;78.40;;;;;;10450395;28;20037;-59
2022/05/07 01:00:38;;;;;;;9.55;6.97;;;17.00;78.60;;;;;;10442702;28;20475;-57
2022/05/07 01:05:39;;;;;;;9.57;6.53;;;17.00;78.60;;;;;;10449511;28;20031;-58
2022/05/07 01:10:40;;;;;;;10.32;6.43;;;17.00;78.60;;;;;;10450103;28;20071;-57
2022/05/07 01:15:45;;;;;;;11.77;6.90;;;17.00;78.70;;;;;;10449224;28;20029;-58
2022/05/07 01:20:45;;;;;;;9.82;6.68;;;16.90;78.70;;;;;;10448547;28;20441;-59
2022/05/07 01:25:46;;;;;;;9.52;6.50;;;16.90;78.70;;;;;;10450802;28;20127;-59
2022/05/07 01:30:47;;;;;;;10.32;6.70;;;16.90;78.80;;;;;;10449789;28;20040;-58
2022/05/07 01:35:47;;;;;;;13.20;7.22;;;16.80;78.80;;;;;;10448070;28;20025;-59
2022/05/07 01:40:48;;;;;;;14.02;7.05;;;16.80;78.90;;;;;;10439115;28;20029;-58
2022/05/07 01:45:49;;;;;;;11.27;7.10;;;16.80;78.90;;;;;;10448337;28;20476;-56
2022/05/07 01:50:50;;;;;;;10.23;7.32;;;16.80;78.90;;;;;;10448020;28;20442;-57
2022/05/07 01:55:50;;;;;;;9.95;7.15;;;16.80;79.00;;;;;;10448066;28;20029;-59
2022/05/07 02:00:51;;;;;;;10.23;6.88;;;16.70;79.00;;;;;;10447463;28;20074;-57
2022/05/07 02:05:51;;;;;;;10.70;7.70;;;16.70;79.00;;;;;;10447629;28;20111;-59
2022/05/07 02:10:52;;;;;;;10.50;7.30;;;16.70;79.10;;;;;;10446807;28;20056;-58
2022/05/07 02:15:53;;;;;;;10.60;7.57;;;16.70;79.20;;;;;;10446806;28;20395;-56
2022/05/07 02:20:53;;;;;;;10.10;7.43;;;16.70;79.20;;;;;;10446488;28;20049;-58
2022/05/07 02:25:55;;;;;;;11.75;7.47;;;16.60;79.30;;;;;;10446845;28;20037;-57
2022/05/07 02:30:55;;;;;;;11.80;8.07;;;16.60;79.40;;;;;;10446162;28;20049;-57
2022/05/07 02:35:56;;;;;;;9.93;6.90;;;16.60;79.40;;;;;;10445963;28;20025;-57
2022/05/07 02:46:16;;;;;;;10.75;7.43;;;16.60;79.50;;;;;;10439826;28;20411;-57
2022/05/07 02:51:17;;;;;;;10.55;7.65;;;16.50;79.50;;;;;;10445266;28;20065;-56
2022/05/07 02:56:18;;;;;;;9.05;6.60;;;16.50;79.60;;;;;;10445517;28;20021;-56
2022/05/07 03:01:18;;;;;;;12.20;7.63;;;16.50;79.60;;;;;;10444930;28;20037;-57
2022/05/07 03:06:19;;;;;;;13.57;7.82;;;16.50;79.70;;;;;;10445309;28;20530;-57
2022/05/07 03:11:20;;;;;;;11.60;7.57;;;16.50;79.80;;;;;;10444375;28;20056;-56
2022/05/07 03:16:20;;;;;;;12.15;7.97;;;16.40;79.80;;;;;;10444914;28;20492;-58
2022/05/07 03:21:21;;;;;;;11.32;7.18;;;16.40;79.80;;;;;;10444605;28;20060;-58
2022/05/07 03:26:22;;;;;;;9.45;6.57;;;16.40;80.50;;;;;;10445016;28;20021;-58
2022/05/07 03:31:23;;;;;;;9.57;6.95;;;16.40;80.00;;;;;;10445610;28;20036;-57
2022/05/07 03:36:23;;;;;;;12.85;6.97;;;16.40;80.00;;;;;;10444150;28;20018;-57
2022/05/07 03:41:24;;;;;;;12.30;7.18;;;16.40;80.00;;;;;;10444199;28;20033;-58
2022/05/07 03:46:25;;;;;;;12.60;7.47;;;16.30;80.10;;;;;;10443781;28;20021;-58
2022/05/07 03:51:26;;;;;;;12.02;7.05;;;16.30;80.10;;;;;;10443562;28;20043;-56
2022/05/07 03:56:27;;;;;;;10.43;7.18;;;16.30;80.20;;;;;;10443796;28;20029;-58
2022/05/07 04:01:27;;;;;;;10.57;7.57;;;16.30;80.20;;;;;;10443439;28;20043;-58
2022/05/07 04:06:28;;;;;;;9.13;6.95;;;16.30;80.30;;;;;;10443395;28;20075;-57
2022/05/07 04:11:29;;;;;;;9.88;7.20;;;16.30;80.30;;;;;;10443343;28;20044;-56
2022/05/07 04:16:30;;;;;;;9.82;6.93;;;16.20;80.30;;;;;;10443479;28;20082;-58
2022/05/07 04:21:32;;;;;;;9.68;6.97;;;16.20;80.40;;;;;;10443160;28;20091;-58
2022/05/07 04:26:33;;;;;;;10.93;7.00;;;16.20;80.40;;;;;;10443326;28;20032;-54
2022/05/07 04:31:34;;;;;;;9.75;7.70;;;16.20;80.50;;;;;;10443291;28;20060;-57
2022/05/07 04:36:35;;;;;;;10.05;7.00;;;16.20;80.50;;;;;;10425662;28;20044;-58
2022/05/07 04:41:36;;;;;;;10.85;7.80;;;16.20;80.60;;;;;;10450054;28;20110;-57
2022/05/07 04:46:36;;;;;;;10.93;7.80;;;16.20;80.70;;;;;;10450924;28;20032;-53
2022/05/07 04:51:37;;;;;;;11.30;7.50;;;16.20;80.70;;;;;;10450144;28;20040;-58
2022/05/07 04:56:38;;;;;;;11.07;7.45;;;16.20;80.70;;;;;;10450440;28;20506;-58
2022/05/07 05:01:38;;;;;;;12.07;7.70;;;16.10;80.70;;;;;;10449458;28;20035;-58
2022/05/07 05:06:40;;;;;;;13.48;8.40;;;16.10;80.80;;;;;;10449648;28;20025;-56
2022/05/07 05:11:40;;;;;;;13.95;7.97;;;16.10;80.80;;;;;;10449434;28;20430;-58
2022/05/07 05:16:41;;;;;;;12.80;8.55;;;16.10;80.90;;;;;;10449190;28;20033;-57
2022/05/07 05:21:42;;;;;;;11.30;7.85;;;16.10;80.90;;;;;;10449176;28;20040;-58
2022/05/07 05:26:42;;;;;;;11.93;7.65;;;16.10;80.90;;;;;;10448423;28;20044;-58
2022/05/07 05:31:43;;;;;;;12.32;7.88;;;16.10;80.90;;;;;;10449201;28;20035;-57
2022/05/07 05:36:44;;;;;;;10.70;7.82;;;16.10;81.00;;;;;;10448398;28;20075;-56
2022/05/07 05:41:45;;;;;;;11.57;7.80;;;16.10;81.00;;;;;;10448479;28;20391;-56
2022/05/07 05:46:45;;;;;;;13.25;8.50;;;16.10;80.90;;;;;;10447817;28;20025;-58
2022/05/07 05:51:46;;;;;;;12.63;8.45;;;16.10;81.00;;;;;;10447333;28;20265;-57
2022/05/07 05:56:47;;;;;;;12.48;8.40;;;16.10;80.90;;;;;;10447959;28;20025;-58
2022/05/07 06:01:48;;;;;;;13.13;8.65;;;16.20;81.00;;;;;;10447553;28;20147;-57
2022/05/07 06:06:49;;;;;;;12.73;8.40;;;16.20;80.90;;;;;;10445940;28;20055;-59
2022/05/07 06:11:51;;;;;;;12.02;8.32;;;16.20;81.00;;;;;;10446860;28;20045;-57
2022/05/07 06:16:52;;;;;;;18.85;9.13;;;16.20;81.00;;;;;;10446523;28;20491;-58
2022/05/07 06:21:53;;;;;;;12.35;8.15;;;16.20;81.00;;;;;;10445918;28;20049;-58
2022/05/07 06:32:14;;;;;;;12.95;8.35;;;16.20;80.90;;;;;;10445486;28;20179;-56
2022/05/07 06:37:14;;;;;;;11.32;7.47;;;16.20;80.90;;;;;;10446708;28;20429;-56
2022/05/07 06:42:18;;;;;;;13.10;7.72;;;16.20;80.90;;;;;;10446169;28;20025;-57
2022/05/07 06:47:18;;;;;;;9.85;7.57;;;16.20;80.90;;;;;;10445018;28;20025;-58
2022/05/07 06:52:19;;;;;;;11.15;7.45;;;16.20;80.90;;;;;;10445322;28;20048;-56
2022/05/07 06:57:20;;;;;;;10.65;7.10;;;16.20;80.80;;;;;;10445362;28;20025;-58
2022/05/07 07:02:21;;;;;;;9.15;6.93;;;16.30;80.90;;;;;;10444239;28;20029;-58
2022/05/07 07:07:25;;;;;;;9.60;6.85;;;16.20;80.70;;;;;;10443342;28;20021;-56
2022/05/07 07:12:26;;;;;;;10.90;6.72;;;16.30;80.80;;;;;;10443243;28;20049;-58
2022/05/07 07:17:27;;;;;;;10.95;5.95;;;16.30;80.70;;;;;;10442681;28;20401;-56
2022/05/07 07:22:28;;;;;;;9.25;5.68;;;16.30;80.60;;;;;;10444726;28;20029;-56
2022/05/07 07:27:29;;;;;;;10.88;6.18;;;16.30;80.60;;;;;;10446089;28;20017;-57
2022/05/07 07:32:30;;;;;;;10.38;6.40;;;16.40;80.60;;;;;;10443064;28;20036;-56
2022/05/07 07:37:32;;;;;;;8.38;5.65;;;16.40;81.30;;;;;;10443022;28;20033;-56
2022/05/07 07:42:33;;;;;;;8.30;5.38;;;16.40;80.60;;;;;;10444804;28;20036;-56
2022/05/07 07:52:54;;;;;;;7.70;5.60;;;16.50;80.50;;;;;;10441626;28;20044;-55
2022/05/07 07:57:56;;;;;;;9.27;5.70;;;16.50;80.50;;;;;;10444863;28;20028;-58
2022/05/07 08:03:05;;;;;;;8.98;5.00;;;16.60;80.40;;;;;;10444881;28;20027;-58
2022/05/07 08:13:35;;;;;;;9.27;5.50;;;16.70;80.40;;;;;;10448359;28;20099;-57
2022/05/07 08:18:36;;;;;;;6.45;4.40;;;16.70;80.40;;;;;;10453447;28;20566;-56
2022/05/07 08:23:38;;;;;;;9.27;4.45;;;16.70;80.30;;;;;;10452345;28;20117;-58
2022/05/07 08:28:40;;;;;;;7.15;4.70;;;16.70;80.80;;;;;;10451311;28;20103;-56
2022/05/07 08:33:41;;;;;;;6.85;5.00;;;16.80;80.30;;;;;;10452494;28;20025;-58
2022/05/07 08:38:43;;;;;;;5.32;4.43;;;16.80;80.20;;;;;;10452221;28;20029;-59
2022/05/07 08:43:44;;;;;;;6.43;4.30;;;16.80;80.10;;;;;;10451413;28;20064;-59
2022/05/07 08:48:49;;;;;;;7.10;4.45;;;16.90;80.20;;;;;;10445522;28;20133;-56
2022/05/07 08:53:53;;;;;;;6.22;4.50;;;16.90;80.10;;;;;;10447211;28;20106;-58
2022/05/07 08:58:54;;;;;;;8.90;4.47;;;17.00;80.60;;;;;;10449091;28;20029;-58
2022/05/07 09:04:49;;;;;;;6.18;4.22;;;17.10;79.90;;;;;;10389099;28;20037;-61
2022/05/07 09:10:19;;;;;;;7.43;4.30;;;17.10;80.00;;;;;;9929356;22;20257;-75
2022/05/07 09:16:12;;;;;;;9.35;4.85;;;17.20;79.70;;;;;;10471805;28;20044;-75
2022/05/07 09:22:25;;;;;;;8.05;4.78;;;17.30;79.70;;;;;;10475051;28;20032;-82
2022/05/07 09:28:26;;;;;;;9.07;5.20;;;17.40;79.90;;;;;;10486516;28;20055;-82
2022/05/07 09:40:48;;;;;;;11.88;5.30;;;17.60;79.50;;;;;;10215025;28;177984;-55
2022/05/07 09:45:49;;;;;;;8.45;5.13;;;17.70;79.50;;;;;;10328151;28;56295;-56
2022/05/07 09:50:50;;;;;;;9.52;5.45;;;17.70;79.60;;;;;;10395312;28;20072;-56
2022/05/07 10:01:43;;;;;;;9.50;5.40;;;17.70;79.70;;;;;;10438912;28;20022;-57
2022/05/07 10:07:09;;;;;;;10.35;5.45;;;17.80;80.00;;;;;;10442314;28;20033;-59
2022/05/07 10:12:17;;;;;;;11.70;5.72;;;17.90;80.20;;;;;;10438495;28;20034;-59
2022/05/07 10:17:21;;;;;;;;;;;17.90;79.90;;;;;;10440913;28;20017;-60
2022/05/07 10:22:26;;;;;;;12.10;5.93;;;17.90;80.60;;;;;;10438128;28;19974;-59
2022/05/07 10:27:42;;;;;;;11.30;6.22;;;17.90;79.90;;;;;;10437897;28;20393;-55
2022/05/07 10:33:02;;;;;;;11.98;6.13;;;17.90;80.20;;;;;;10438598;28;20061;-59
2022/05/07 10:38:31;;;;;;;17.48;6.63;;;17.90;80.60;;;;;;10430970;28;20182;-58
2022/05/07 10:43:35;;;;;;;10.00;5.72;;;17.90;80.50;;;;;;10427053;28;20072;-59
2022/05/07 10:48:47;;;;;;;12.05;6.47;;;17.90;80.50;;;;;;10410536;28;20021;-60
2022/05/07 10:53:49;;;;;;;12.50;5.95;;;17.90;80.80;;;;;;10412071;28;20409;-60
2022/05/07 10:58:51;;;;;;;9.40;5.53;;;17.90;80.70;;;;;;10409108;28;20402;-59
2022/05/07 11:04:05;;;;;;;9.32;5.35;;;17.90;80.70;;;;;;10405411;28;20052;-57
2022/05/07 11:09:13;;;;;;;11.45;6.25;;;17.90;80.90;;;;;;10408322;28;20499;-59
2022/05/07 11:14:32;;;;;;;13.23;6.68;;;18.00;80.70;;;;;;10407129;28;20048;-58
2022/05/07 11:19:34;;;;;;;11.63;6.65;;;18.10;81.00;;;;;;10411908;28;20093;-60
2022/05/07 11:24:35;;;;;;;11.57;5.85;;;18.10;80.70;;;;;;10410354;28;20079;-58
2022/05/07 11:29:36;;;;;;;12.57;6.30;;;18.20;80.60;;;;;;10412025;28;20396;-59
2022/05/07 11:34:39;;;;;;;11.77;6.38;;;18.20;80.60;;;;;;10413440;28;20053;-62
2022/05/07 11:46:51;;;;;;;;;;;18.30;81.00;;;;;;10474623;28;20069;-84
2022/05/07 11:52:10;;;;;;;10.85;5.45;;;18.50;81.10;;;;;;10453871;28;19974;-83
2022/05/07 11:59:09;;;;;;;10.98;6.05;;;18.60;80.40;;;;;;10596710;27;20227;-71
2022/05/07 12:04:11;;;;;;;11.15;6.53;;;18.60;80.20;;;;;;10602390;27;20511;-72
2022/05/07 12:09:13;;;;;;;9.93;5.88;;;18.70;80.30;;;;;;10596466;27;20030;-70
2022/05/07 12:14:15;;;;;;;11.52;6.82;;;18.70;80.90;;;;;;10601017;27;20023;-72
2022/05/07 12:19:15;;;;;;;11.85;6.63;;;18.70;80.50;;;;;;10596359;27;20024;-72
2022/05/07 12:29:51;;;;;;;12.23;7.30;;;18.90;80.60;;;;;;10597645;27;20114;-72
2022/05/07 12:34:51;;;;;;;14.77;6.93;;;19.00;80.60;;;;;;10600254;27;20536;-69
2022/05/07 12:39:52;;;;;;;12.55;7.95;;;19.00;80.70;;;;;;10598952;27;20061;-72
2022/05/07 12:44:53;;;;;;;14.18;7.88;;;19.00;80.80;;;;;;10605696;27;20045;-70
2022/05/07 12:49:54;;;;;;;9.85;6.70;;;19.00;80.90;;;;;;10593999;27;20443;-72
2022/05/07 12:54:54;;;;;;;11.82;6.80;;;19.00;81.00;;;;;;10598771;27;20060;-72
2022/05/07 12:59:55;;;;;;;8.40;5.95;;;19.10;81.20;;;;;;10591586;27;20355;-71
2022/05/07 13:04:56;;;;;;;11.63;6.60;;;19.10;81.40;;;;;;10603848;27;20369;-68
2022/05/07 13:09:57;;;;;;;12.32;6.65;;;19.00;81.50;;;;;;10572562;27;20089;-69
2022/05/07 13:14:58;;;;;;;11.15;6.72;;;19.00;81.70;;;;;;10576382;28;20123;-72
2022/05/07 13:19:59;;;;;;;10.75;5.55;;;19.10;81.90;;;;;;10564819;27;20016;-71
2022/05/07 13:25:00;;;;;;;11.27;5.90;;;19.10;81.90;;;;;;10559613;28;20032;-70
2022/05/07 13:30:00;;;;;;;13.25;8.63;;;19.10;81.80;;;;;;10567326;27;20024;-69
2022/05/07 13:35:01;;;;;;;9.48;6.13;;;19.10;81.80;;;;;;10569372;28;20126;-69
2022/05/07 13:40:03;;;;;;;14.25;7.85;;;19.10;81.80;;;;;;10575465;27;20451;-72
2022/05/07 13:45:09;;;;;;;9.60;6.00;;;19.20;81.80;;;;;;10577825;27;20027;-68
2022/05/07 13:50:12;;;;;;;11.27;6.70;;;19.30;81.60;;;;;;10569899;27;20123;-72
2022/05/07 13:55:13;;;;;;;14.13;7.53;;;19.30;81.60;;;;;;10568117;27;20075;-72
2022/05/07 14:00:16;;;;;;;11.85;6.75;;;19.20;81.70;;;;;;10565386;28;20625;-71
2022/05/07 14:05:17;;;;;;;10.98;5.88;;;19.30;81.60;;;;;;10560445;28;20039;-72
2022/05/07 14:10:18;;;;;;;10.18;6.15;;;19.40;81.40;;;;;;10561546;28;20430;-70
2022/05/07 14:15:18;;;;;;;7.95;4.97;;;19.40;81.50;;;;;;10575310;27;20078;-73
2022/05/07 14:20:19;;;;;;;10.75;5.32;;;19.40;81.60;;;;;;10559627;27;20073;-71
2022/05/07 14:25:20;;;;;;;7.78;5.25;;;19.30;81.60;;;;;;10554940;28;20044;-72
2022/05/07 14:30:21;;;;;;;10.02;5.25;;;19.30;81.70;;;;;;10567332;27;20429;-72
2022/05/07 14:35:22;;;;;;;9.45;4.85;;;19.40;81.80;;;;;;10564467;28;20032;-69
2022/05/07 14:40:28;;;;;;;7.63;4.63;;;19.30;82.00;;;;;;10547942;28;20025;-71
2022/05/07 14:45:35;;;;;;;8.77;5.18;;;19.30;82.20;;;;;;10546759;28;20557;-68
2022/05/07 14:50:36;;;;;;;7.87;4.67;;;19.20;82.20;;;;;;10536490;28;20024;-69
2022/05/07 14:55:37;;;;;;;6.93;4.00;;;19.40;82.10;;;;;;10539644;28;20071;-69
2022/05/07 15:00:38;;;;;;;5.95;4.05;;;19.50;81.90;;;;;;10536881;28;20028;-73
2022/05/07 15:05:38;;;;;;;6.50;4.00;;;19.40;81.80;;;;;;10536879;28;20047;-67
2022/05/07 15:10:39;;;;;;;5.15;3.65;;;19.60;81.70;;;;;;10531188;28;20120;-69
2022/05/07 15:15:40;;;;;;;4.85;3.25;;;19.70;81.50;;;;;;10535036;28;20086;-71
2022/05/07 15:20:41;;;;;;;10.02;6.05;;;19.70;81.40;;;;;;10555450;27;20119;-65
2022/05/07 15:25:43;;;;;;;11.18;6.63;;;19.80;80.90;;;;;;10533728;28;20081;-68
2022/05/07 15:30:44;;;;;;;13.18;6.50;;;19.40;80.70;;;;;;10541922;28;20012;-66
2022/05/07 15:41:04;;;;;;;8.38;4.35;;;19.30;80.50;;;;;;10539226;28;20024;-69
2022/05/07 15:46:06;;;;;;;8.20;4.38;;;19.30;79.70;;;;;;10551958;28;20422;-63
2022/05/07 15:51:07;;;;;;;8.50;4.28;;;19.30;79.20;;;;;;10567381;28;20123;-58
2022/05/07 15:56:08;;;;;;;6.45;4.00;;;19.20;79.00;;;;;;10559095;28;20503;-66
2022/05/07 16:01:09;;;;;;;7.25;4.38;;;19.00;79.10;;;;;;10560291;28;20109;-58
2022/05/07 16:06:11;;;;;;;7.80;4.30;;;18.70;79.50;;;;;;10563336;28;20080;-65
2022/05/07 16:11:11;;;;;;;6.65;3.67;;;18.40;80.30;;;;;;10545779;28;20034;-60
2022/05/07 16:16:12;;;;;;;5.82;3.10;;;18.20;81.30;;;;;;10569534;28;20039;-66
2022/05/07 16:21:13;;;;;;;7.55;3.70;;;18.20;80.80;;;;;;10555356;28;20028;-65
2022/05/07 16:26:13;;;;;;;10.23;3.90;;;18.10;81.40;;;;;;10542160;28;20020;-65
2022/05/07 16:31:15;;;;;;;7.15;3.85;;;17.80;82.60;;;;;;10564082;28;20020;-67
2022/05/07 16:36:16;;;;;;;8.73;4.38;;;17.60;83.60;;;;;;10569007;28;20040;-67
2022/05/07 16:41:16;;;;;;;7.53;4.43;;;17.40;84.50;;;;;;10569803;28;20024;-64
2022/05/07 16:46:17;;;;;;;9.20;4.10;;;17.30;84.70;;;;;;10576350;28;20035;-66
2022/05/07 16:51:18;;;;;;;6.20;3.63;;;17.10;85.40;;;;;;10576946;28;20012;-66
2022/05/07 16:56:19;;;;;;;8.80;3.40;;;16.80;86.60;;;;;;10570525;28;20052;-66
2022/05/07 17:01:19;;;;;;;8.60;3.35;;;16.60;85.80;;;;;;10570373;28;20027;-65
2022/05/07 17:06:27;;;;;;;4.43;2.25;;;16.60;85.60;;;;;;10556659;28;20281;-64
2022/05/07 17:11:28;;;;;;;5.35;2.58;;;16.50;84.60;;;;;;10539403;28;20040;-66
2022/05/07 17:16:28;;;;;;;3.33;1.50;;;16.50;84.20;;;;;;10570996;27;20105;-75
2022/05/07 17:21:29;;;;;;;5.32;2.33;;;16.50;83.70;;;;;;10566177;27;20115;-63
2022/05/07 17:26:30;;;;;;;5.40;2.30;;;16.70;83.50;;;;;;10570469;28;20692;-71
2022/05/07 17:31:31;;;;;;;4.50;2.30;;;16.80;83.80;;;;;;10564007;27;20028;-75
2022/05/07 17:36:32;;;;;;;4.35;2.10;;;17.10;83.60;;;;;;10575811;27;20105;-83
2022/05/07 17:41:32;;;;;;;4.82;2.10;;;17.40;83.40;;;;;;10556947;27;20026;-70
2022/05/07 17:46:33;;;;;;;4.55;1.90;;;17.50;83.30;;;;;;10561948;28;20377;-62
2022/05/07 17:51:34;;;;;;;5.60;2.00;;;17.70;83.20;;;;;;10564133;28;20019;-70
2022/05/07 17:56:36;;;;;;;6.32;2.00;;;17.80;83.20;;;;;;10545276;28;20579;-68
2022/05/07 18:01:38;;;;;;;5.57;2.15;;;17.90;83.10;;;;;;10544765;28;20026;-69
2022/05/07 18:06:39;;;;;;;3.13;1.80;;;18.00;83.00;;;;;;10548473;28;20040;-67
2022/05/07 18:11:40;;;;;;;4.20;1.83;;;17.90;82.90;;;;;;10549485;28;20026;-70
2022/05/07 18:16:41;;;;;;;4.47;1.65;;;18.00;83.00;;;;;;10542795;27;20039;-72
2022/05/07 18:21:42;;;;;;;3.88;1.80;;;18.00;83.00;;;;;;10549610;27;20514;-73
2022/05/07 18:26:43;;;;;;;5.60;1.90;;;18.00;83.50;;;;;;10557134;27;20758;-73
2022/05/07 18:31:44;;;;;;;6.53;2.03;;;18.00;82.90;;;;;;10555744;27;20016;-73
2022/05/07 18:47:24;;;;;;;2.55;1.83;;;18.00;83.00;;;;;;10561624;27;20072;-71
2022/05/07 18:52:26;;;;;;;5.05;1.95;;;18.00;83.00;;;;;;10580664;27;20076;-66
2022/05/07 19:02:46;;;;;;;3.45;1.77;;;17.90;83.00;;;;;;10564121;27;20051;-71
2022/05/07 19:07:47;;;;;;;2.17;1.95;;;17.80;83.00;;;;;;10571041;27;20036;-70
2022/05/07 19:12:50;;;;;;;2.90;1.73;;;17.80;83.10;;;;;;10555327;27;20016;-72
2022/05/07 19:17:51;;;;;;;2.83;1.77;;;17.80;83.10;;;;;;10554484;27;20036;-71
2022/05/07 19:22:53;;;;;;;3.15;1.58;;;17.80;83.10;;;;;;10571732;27;20031;-71
2022/05/07 19:27:54;;;;;;;4.22;1.80;;;17.70;83.10;;;;;;10567767;27;20012;-76
2022/05/07 19:32:55;;;;;;;2.53;1.70;;;17.70;83.10;;;;;;10565375;27;20035;-76
2022/05/07 19:37:56;;;;;;;4.70;1.92;;;17.70;83.20;;;;;;10560299;27;20036;-72
2022/05/07 19:42:57;;;;;;;5.05;2.05;;;17.60;83.20;;;;;;10552544;27;20106;-77
2022/05/07 19:47:58;;;;;;;2.90;1.92;;;17.60;83.40;;;;;;10552358;27;20158;-68
2022/05/07 19:53:01;;;;;;;3.78;2.13;;;17.50;83.40;;;;;;10572723;27;20531;-70
2022/05/07 19:58:02;;;;;;;6.43;2.60;;;17.50;83.50;;;;;;10561839;28;20103;-68
2022/05/07 20:03:03;;;;;;;3.78;2.50;;;17.40;83.40;;;;;;10544098;28;20166;-72
2022/05/07 20:08:04;;;;;;;2.75;2.45;;;17.40;83.50;;;;;;10554875;28;20680;-71
2022/05/07 20:13:05;;;;;;;4.90;2.30;;;17.40;83.50;;;;;;10557876;27;20024;-69
2022/05/07 20:18:06;;;;;;;5.88;2.80;;;17.30;83.50;;;;;;10556843;27;20028;-65
2022/05/07 20:23:06;;;;;;;4.88;3.00;;;17.30;83.50;;;;;;10571589;27;20018;-64
2022/05/07 20:28:07;;;;;;;4.53;2.50;;;17.20;83.40;;;;;;10592046;27;20042;-65
2022/05/07 20:33:08;;;;;;;5.50;2.60;;;17.20;83.40;;;;;;10570122;27;20027;-64
2022/05/07 20:38:09;;;;;;;5.68;2.92;;;17.20;83.50;;;;;;10586912;27;20031;-61
2022/05/07 20:48:29;;;;;;;5.75;3.08;;;17.00;83.30;;;;;;10573865;27;20050;-66
2022/05/07 20:53:30;;;;;;;4.43;2.88;;;17.00;83.30;;;;;;10582695;27;20026;-68
2022/05/07 20:58:30;;;;;;;5.28;3.25;;;17.00;83.30;;;;;;10590978;27;20051;-70
2022/05/07 21:03:33;;;;;;;4.03;3.17;;;17.00;83.50;;;;;;10577178;27;20023;-66
2022/05/07 21:08:34;;;;;;;5.40;3.25;;;16.90;83.30;;;;;;10576356;27;20036;-67
2022/05/07 21:13:37;;;;;;;4.85;3.10;;;16.90;83.20;;;;;;10569952;27;20020;-68
2022/05/07 21:18:38;;;;;;;4.00;3.33;;;16.80;83.20;;;;;;10571580;27;20028;-72
2022/05/07 21:23:40;;;;;;;5.32;3.50;;;16.80;83.10;;;;;;10550832;28;20464;-61
2022/05/07 21:28:41;;;;;;;5.03;3.28;;;16.80;83.10;;;;;;10541568;28;20028;-75
2022/05/07 21:33:41;;;;;;;6.85;3.10;;;16.70;83.00;;;;;;10541968;28;20031;-71
2022/05/07 21:38:43;;;;;;;7.35;3.47;;;16.70;83.00;;;;;;10541607;28;20035;-74
2022/05/07 21:43:44;;;;;;;5.50;3.28;;;16.60;82.90;;;;;;10541243;28;20412;-69
2022/05/07 21:48:45;;;;;;;6.38;3.28;;;16.60;82.90;;;;;;10541128;28;20036;-73
2022/05/07 21:53:47;;;;;;;6.18;3.13;;;16.60;82.90;;;;;;10540827;28;20094;-74
2022/05/07 21:58:47;;;;;;;6.57;3.83;;;16.50;82.80;;;;;;10540512;28;20411;-71
2022/05/07 22:03:48;;;;;;;5.07;3.83;;;16.50;82.70;;;;;;10540435;28;20032;-73
2022/05/07 22:08:49;;;;;;;6.95;3.88;;;16.50;82.70;;;;;;10540249;28;20036;-69
2022/05/07 22:13:50;;;;;;;5.80;3.33;;;16.50;82.70;;;;;;10540307;28;20476;-74
2022/05/07 22:18:50;;;;;;;5.32;3.17;;;16.40;82.60;;;;;;10539813;28;20032;-73
2022/05/07 22:23:52;;;;;;;6.40;3.40;;;16.40;82.50;;;;;;10539723;28;20058;-74
2022/05/07 22:28:52;;;;;;;6.40;3.22;;;16.40;82.50;;;;;;10539431;28;20035;-74
2022/05/07 22:33:53;;;;;;;5.38;3.30;;;16.40;82.50;;;;;;10539100;28;20036;-73
2022/05/07 22:38:54;;;;;;;5.95;3.08;;;16.30;82.50;;;;;;10538211;28;20530;-74
2022/05/07 22:43:54;;;;;;;5.57;3.45;;;16.30;82.40;;;;;;10537768;28;20050;-74
2022/05/07 22:48:55;;;;;;;7.57;3.42;;;16.30;82.40;;;;;;10538627;28;20103;-74
2022/05/07 22:53:56;;;;;;;6.03;3.10;;;16.20;82.40;;;;;;10538948;28;20114;-73
2022/05/07 22:58:57;;;;;;;7.45;2.75;;;16.20;82.30;;;;;;10537863;28;20062;-75
2022/05/07 23:03:57;;;;;;;10.98;3.10;;;16.20;82.30;;;;;;10538279;28;20030;-69
2022/05/07 23:08:58;;;;;;;7.13;2.83;;;16.20;82.30;;;;;;10538014;28;20074;-74
2022/05/07 23:13:59;;;;;;;6.20;2.85;;;16.10;82.20;;;;;;10538175;28;20043;-73
2022/05/07 23:18:59;;;;;;;8.18;2.83;;;16.10;82.20;;;;;;10537495;28;20504;-74
2022/05/07 23:24:00;;;;;;;7.82;2.70;;;16.10;82.10;;;;;;10537641;28;20039;-75
2022/05/07 23:29:01;;;;;;;5.20;2.65;;;16.00;82.10;;;;;;10537586;28;20468;-72
2022/05/07 23:34:02;;;;;;;6.05;2.33;;;16.00;82.00;;;;;;10537543;28;20035;-76
2022/05/07 23:39:02;;;;;;;5.47;2.55;;;16.00;82.00;;;;;;10538709;28;20047;-74
2022/05/07 23:44:03;;;;;;;7.32;3.15;;;15.90;81.90;;;;;;10550238;28;20024;-66
2022/05/07 23:49:04;;;;;;;7.43;2.50;;;15.90;81.90;;;;;;10550157;28;20070;-73
2022/05/07 23:54:05;;;;;;;11.70;3.00;;;15.90;82.00;;;;;;10543102;28;20028;-72
2022/05/07 23:59:05;;;;;;;6.78;2.53;;;15.80;81.80;;;;;;10536945;28;20385;-71
